sensor_id;sensor_type;location;lat;lon;timestamp;pressure;altitude;pressure_sealevel;temperature;humidity
62694;BME280;48759;52.544;13.418;2022-12-07T00:00:11;100638.56;;;2.99;100.00
62694;BME280;48759;52.544;13.418;2022-12-07T00:02:38;100637.00;;;2.96;100.00
62694;BME280;48759;52.544;13.418;2022-12-07T00:05:05;100635.84;;;2.99;100.00
62694;BME280;48759;52.544;13.418;2022-12-07T00:07:33;100639.25;;;2.75;100.00
62694;BME280;48759;52.544;13.418;2022-12-07T00:10:00;100630.16;;;2.66;100.00
62694;BME280;48759;52.544;13.418;2022-12-07T00:12:26;100641.19;;;2.65;100.00
62694;BME280;48759;52.544;13.418;2022-12-07T00:14:53;100633.22;;;2.46;100.00
62694;BME280;48759;52.544;13.418;2022-12-07T00:17:20;100625.59;;;2.67;100.00
62694;BME280;48759;52.544;13.418;2022-12-07T00:19:46;100619.44;;;2.65;100.00
62694;BME280;48759;52.544;13.418;2022-12-07T00:22:13;100621.53;;;2.71;100.00
62694;BME280;48759;52.544;13.418;2022-12-07T00:24:41;100624.97;;;2.99;100.00
62694;BME280;48759;52.544;13.418;2022-12-07T00:27:08;100615.34;;;2.87;100.00
62694;BME280;48759;52.544;13.418;2022-12-07T00:29:34;100624.78;;;3.26;100.00
62694;BME280;48759;52.544;13.418;2022-12-07T00:32:02;100624.59;;;2.50;100.00
62694;BME280;48759;52.544;13.418;2022-12-07T00:34:29;100606.38;;;2.43;100.00
62694;BME280;48759;52.544;13.418;2022-12-07T00:36:56;100615.03;;;2.64;100.00
62694;BME280;48759;52.544;13.418;2022-12-07T00:39:22;100621.00;;;3.45;100.00
62694;BME280;48759;52.544;13.418;2022-12-07T00:41:50;100604.84;;;3.18;100.00
62694;BME280;48759;52.544;13.418;2022-12-07T00:44:17;100606.19;;;3.14;100.00
62694;BME280;48759;52.544;13.418;2022-12-07T00:46:44;100605.44;;;3.29;100.00
62694;BME280;48759;52.544;13.418;2022-12-07T00:49:11;100595.31;;;3.14;100.00
62694;BME280;48759;52.544;13.418;2022-12-07T00:51:38;100599.72;;;3.06;100.00
62694;BME280;48759;52.544;13.418;2022-12-07T00:54:04;100604.06;;;3.59;100.00
62694;BME280;48759;52.544;13.418;2022-12-07T00:56:31;100598.97;;;3.56;100.00
62694;BME280;48759;52.544;13.418;2022-12-07T00:59:01;100599.91;;;3.13;100.00
62694;BME280;48759;52.544;13.418;2022-12-07T01:01:31;100595.00;;;3.17;100.00
62694;BME280;48759;52.544;13.418;2022-12-07T01:03:58;100590.38;;;3.09;100.00
62694;BME280;48759;52.544;13.418;2022-12-07T01:06:26;100589.38;;;2.84;100.00
62694;BME280;48759;52.544;13.418;2022-12-07T01:08:54;100587.25;;;2.70;100.00
62694;BME280;48759;52.544;13.418;2022-12-07T01:11:22;100590.22;;;2.85;100.00
62694;BME280;48759;52.544;13.418;2022-12-07T01:13:50;100573.41;;;2.38;100.00
62694;BME280;48759;52.544;13.418;2022-12-07T01:16:20;100584.25;;;2.81;100.00
62694;BME280;48759;52.544;13.418;2022-12-07T01:18:48;100581.03;;;3.12;100.00
62694;BME280;48759;52.544;13.418;2022-12-07T01:21:16;100576.03;;;3.25;100.00
62694;BME280;48759;52.544;13.418;2022-12-07T01:23:43;100570.75;;;3.65;100.00
62694;BME280;48759;52.544;13.418;2022-12-07T01:26:12;100577.44;;;3.37;100.00
62694;BME280;48759;52.544;13.418;2022-12-07T01:28:39;100571.25;;;2.67;100.00
62694;BME280;48759;52.544;13.418;2022-12-07T01:31:08;100582.34;;;2.99;100.00
62694;BME280;48759;52.544;13.418;2022-12-07T01:33:39;100572.22;;;3.09;100.00
62694;BME280;48759;52.544;13.418;2022-12-07T01:36:07;100571.13;;;3.02;100.00
62694;BME280;48759;52.544;13.418;2022-12-07T01:38:34;100573.94;;;2.85;100.00
62694;BME280;48759;52.544;13.418;2022-12-07T01:41:01;100561.94;;;3.03;100.00
62694;BME280;48759;52.544;13.418;2022-12-07T01:43:30;100566.19;;;2.72;100.00
62694;BME280;48759;52.544;13.418;2022-12-07T01:45:58;100565.22;;;2.81;100.00
62694;BME280;48759;52.544;13.418;2022-12-07T01:48:28;100563.72;;;3.13;100.00
62694;BME280;48759;52.544;13.418;2022-12-07T01:51:00;100559.81;;;3.41;100.00
62694;BME280;48759;52.544;13.418;2022-12-07T01:53:29;100548.28;;;3.55;100.00
62694;BME280;48759;52.544;13.418;2022-12-07T01:55:57;100548.22;;;3.39;100.00
62694;BME280;48759;52.544;13.418;2022-12-07T01:58:25;100547.63;;;3.61;100.00
62694;BME280;48759;52.544;13.418;2022-12-07T02:00:51;100543.97;;;4.03;100.00
62694;BME280;48759;52.544;13.418;2022-12-07T02:03:21;100529.16;;;4.30;100.00
62694;BME280;48759;52.544;13.418;2022-12-07T02:05:50;100531.34;;;3.94;100.00
62694;BME280;48759;52.544;13.418;2022-12-07T02:08:19;100532.53;;;3.99;100.00
62694;BME280;48759;52.544;13.418;2022-12-07T02:10:46;100530.38;;;3.10;100.00
62694;BME280;48759;52.544;13.418;2022-12-07T02:13:16;100533.06;;;3.02;100.00
62694;BME280;48759;52.544;13.418;2022-12-07T02:16:06;100534.84;;;3.20;100.00
62694;BME280;48759;52.544;13.418;2022-12-07T02:18:45;100542.34;;;3.26;100.00
62694;BME280;48759;52.544;13.418;2022-12-07T02:21:19;100529.06;;;3.15;100.00
62694;BME280;48759;52.544;13.418;2022-12-07T02:24:22;100528.94;;;2.90;100.00
62694;BME280;48759;52.544;13.418;2022-12-07T02:27:06;100531.50;;;2.92;100.00
62694;BME280;48759;52.544;13.418;2022-12-07T02:29:39;100522.63;;;3.24;100.00
62694;BME280;48759;52.544;13.418;2022-12-07T02:32:11;100528.09;;;3.24;100.00
62694;BME280;48759;52.544;13.418;2022-12-07T02:34:46;100514.31;;;3.75;100.00
62694;BME280;48759;52.544;13.418;2022-12-07T02:37:21;100507.28;;;3.49;100.00
62694;BME280;48759;52.544;13.418;2022-12-07T02:39:55;100512.59;;;3.74;100.00
62694;BME280;48759;52.544;13.418;2022-12-07T02:42:30;100512.94;;;3.21;100.00
62694;BME280;48759;52.544;13.418;2022-12-07T02:45:00;100502.28;;;2.60;100.00
62694;BME280;48759;52.544;13.418;2022-12-07T02:47:28;100498.69;;;3.27;100.00
62694;BME280;48759;52.544;13.418;2022-12-07T02:49:56;100490.44;;;3.45;100.00
62694;BME280;48759;52.544;13.418;2022-12-07T02:52:22;100492.50;;;3.59;100.00
62694;BME280;48759;52.544;13.418;2022-12-07T02:54:49;100480.72;;;3.34;100.00
62694;BME280;48759;52.544;13.418;2022-12-07T02:57:26;100484.47;;;3.41;100.00
62694;BME280;48759;52.544;13.418;2022-12-07T03:00:03;100481.97;;;3.56;100.00
62694;BME280;48759;52.544;13.418;2022-12-07T03:02:37;100490.66;;;3.68;100.00
62694;BME280;48759;52.544;13.418;2022-12-07T03:05:15;100486.72;;;3.46;100.00
62694;BME280;48759;52.544;13.418;2022-12-07T03:07:59;100482.34;;;4.34;100.00
62694;BME280;48759;52.544;13.418;2022-12-07T03:10:34;100478.41;;;4.12;100.00
62694;BME280;48759;52.544;13.418;2022-12-07T03:13:05;100468.72;;;3.77;100.00
62694;BME280;48759;52.544;13.418;2022-12-07T03:15:40;100457.59;;;2.96;100.00
62694;BME280;48759;52.544;13.418;2022-12-07T03:18:12;100456.41;;;2.91;100.00
62694;BME280;48759;52.544;13.418;2022-12-07T03:20:42;100464.44;;;3.00;100.00
62694;BME280;48759;52.544;13.418;2022-12-07T03:23:12;100452.72;;;3.74;100.00
62694;BME280;48759;52.544;13.418;2022-12-07T03:25:40;100448.28;;;4.30;100.00
62694;BME280;48759;52.544;13.418;2022-12-07T03:28:09;100442.44;;;4.66;100.00
62694;BME280;48759;52.544;13.418;2022-12-07T03:30:42;100444.22;;;4.18;100.00
62694;BME280;48759;52.544;13.418;2022-12-07T03:33:13;100437.06;;;4.33;100.00
62694;BME280;48759;52.544;13.418;2022-12-07T03:35:44;100422.84;;;4.62;100.00
62694;BME280;48759;52.544;13.418;2022-12-07T03:38:17;100416.63;;;4.76;100.00
62694;BME280;48759;52.544;13.418;2022-12-07T03:40:48;100414.84;;;4.52;100.00
62694;BME280;48759;52.544;13.418;2022-12-07T03:43:18;100414.84;;;4.52;100.00
62694;BME280;48759;52.544;13.418;2022-12-07T03:45:54;100404.06;;;5.06;100.00
62694;BME280;48759;52.544;13.418;2022-12-07T03:48:30;100402.06;;;5.00;100.00
62694;BME280;48759;52.544;13.418;2022-12-07T03:51:05;100389.56;;;5.45;100.00
62694;BME280;48759;52.544;13.418;2022-12-07T03:53:35;100394.03;;;5.83;100.00
62694;BME280;48759;52.544;13.418;2022-12-07T03:56:04;100389.91;;;5.42;100.00
62694;BME280;48759;52.544;13.418;2022-12-07T03:58:33;100379.88;;;5.03;100.00
62694;BME280;48759;52.544;13.418;2022-12-07T04:01:02;100389.09;;;4.63;100.00
62694;BME280;48759;52.544;13.418;2022-12-07T04:03:28;100372.91;;;5.00;100.00
62694;BME280;48759;52.544;13.418;2022-12-07T04:05:55;100375.28;;;4.73;100.00
62694;BME280;48759;52.544;13.418;2022-12-07T04:08:23;100377.34;;;4.62;100.00
62694;BME280;48759;52.544;13.418;2022-12-07T04:10:49;100380.44;;;4.51;100.00
62694;BME280;48759;52.544;13.418;2022-12-07T04:13:16;100378.00;;;4.26;100.00
62694;BME280;48759;52.544;13.418;2022-12-07T04:15:43;100381.19;;;4.29;100.00
62694;BME280;48759;52.544;13.418;2022-12-07T04:18:11;100375.13;;;4.19;100.00
62694;BME280;48759;52.544;13.418;2022-12-07T04:20:37;100360.72;;;3.45;100.00
62694;BME280;48759;52.544;13.418;2022-12-07T04:23:04;100362.75;;;3.43;100.00
62694;BME280;48759;52.544;13.418;2022-12-07T04:25:30;100365.59;;;3.26;100.00
62694;BME280;48759;52.544;13.418;2022-12-07T04:27:57;100363.59;;;3.60;100.00
62694;BME280;48759;52.544;13.418;2022-12-07T04:30:24;100365.56;;;4.23;100.00
62694;BME280;48759;52.544;13.418;2022-12-07T04:32:50;100350.78;;;3.20;100.00
62694;BME280;48759;52.544;13.418;2022-12-07T04:35:18;100338.06;;;3.29;100.00
62694;BME280;48759;52.544;13.418;2022-12-07T04:37:45;100345.25;;;3.46;100.00
62694;BME280;48759;52.544;13.418;2022-12-07T04:40:12;100343.16;;;3.80;100.00
62694;BME280;48759;52.544;13.418;2022-12-07T04:42:39;100332.94;;;3.18;100.00
62694;BME280;48759;52.544;13.418;2022-12-07T04:45:07;100331.63;;;3.70;100.00
62694;BME280;48759;52.544;13.418;2022-12-07T04:47:34;100341.47;;;3.96;100.00
62694;BME280;48759;52.544;13.418;2022-12-07T04:50:02;100338.94;;;3.78;100.00
62694;BME280;48759;52.544;13.418;2022-12-07T04:52:30;100335.03;;;3.72;100.00
62694;BME280;48759;52.544;13.418;2022-12-07T04:54:56;100338.66;;;4.20;100.00
62694;BME280;48759;52.544;13.418;2022-12-07T04:57:23;100335.38;;;3.45;100.00
62694;BME280;48759;52.544;13.418;2022-12-07T04:59:49;100333.13;;;3.81;100.00
62694;BME280;48759;52.544;13.418;2022-12-07T05:02:16;100332.06;;;4.06;100.00
62694;BME280;48759;52.544;13.418;2022-12-07T05:04:43;100326.81;;;3.89;100.00
62694;BME280;48759;52.544;13.418;2022-12-07T05:07:09;100333.66;;;3.84;100.00
62694;BME280;48759;52.544;13.418;2022-12-07T05:09:37;100333.28;;;4.04;100.00
62694;BME280;48759;52.544;13.418;2022-12-07T05:12:04;100323.63;;;3.69;100.00
62694;BME280;48759;52.544;13.418;2022-12-07T05:14:31;100325.00;;;4.36;100.00
62694;BME280;48759;52.544;13.418;2022-12-07T05:16:57;100321.06;;;3.83;100.00
62694;BME280;48759;52.544;13.418;2022-12-07T05:19:24;100318.03;;;3.62;100.00
62694;BME280;48759;52.544;13.418;2022-12-07T05:21:51;100312.25;;;3.49;100.00
62694;BME280;48759;52.544;13.418;2022-12-07T05:24:18;100315.50;;;4.24;100.00
62694;BME280;48759;52.544;13.418;2022-12-07T05:26:46;100314.13;;;4.28;100.00
62694;BME280;48759;52.544;13.418;2022-12-07T05:29:14;100315.19;;;4.19;100.00
62694;BME280;48759;52.544;13.418;2022-12-07T05:31:41;100314.25;;;3.88;100.00
62694;BME280;48759;52.544;13.418;2022-12-07T05:34:08;100302.94;;;4.15;100.00
62694;BME280;48759;52.544;13.418;2022-12-07T05:36:35;100307.53;;;4.14;100.00
62694;BME280;48759;52.544;13.418;2022-12-07T05:39:02;100304.94;;;4.29;100.00
62694;BME280;48759;52.544;13.418;2022-12-07T05:41:29;100304.88;;;4.45;100.00
62694;BME280;48759;52.544;13.418;2022-12-07T05:44:15;100297.56;;;4.38;100.00
62694;BME280;48759;52.544;13.418;2022-12-07T05:46:42;100296.88;;;3.89;100.00
62694;BME280;48759;52.544;13.418;2022-12-07T05:49:08;100297.25;;;3.85;100.00
62694;BME280;48759;52.544;13.418;2022-12-07T05:51:35;100295.69;;;3.91;100.00
62694;BME280;48759;52.544;13.418;2022-12-07T05:54:02;100296.81;;;4.83;100.00
62694;BME280;48759;52.544;13.418;2022-12-07T05:56:29;100277.94;;;4.19;100.00
62694;BME280;48759;52.544;13.418;2022-12-07T05:58:56;100281.94;;;4.32;100.00
62694;BME280;48759;52.544;13.418;2022-12-07T06:01:42;100279.38;;;5.15;100.00
62694;BME280;48759;52.544;13.418;2022-12-07T06:04:09;100280.00;;;5.02;100.00
62694;BME280;48759;52.544;13.418;2022-12-07T06:06:36;100275.41;;;5.02;100.00
62694;BME280;48759;52.544;13.418;2022-12-07T06:09:03;100266.00;;;4.82;100.00
62694;BME280;48759;52.544;13.418;2022-12-07T06:11:30;100272.13;;;5.30;100.00
62694;BME280;48759;52.544;13.418;2022-12-07T06:14:16;100261.81;;;4.94;100.00
62694;BME280;48759;52.544;13.418;2022-12-07T06:16:47;100251.09;;;6.05;100.00
62694;BME280;48759;52.544;13.418;2022-12-07T06:19:14;100251.66;;;6.15;100.00
62694;BME280;48759;52.544;13.418;2022-12-07T06:21:41;100261.03;;;5.31;100.00
62694;BME280;48759;52.544;13.418;2022-12-07T06:24:09;100256.50;;;5.01;100.00
62694;BME280;48759;52.544;13.418;2022-12-07T06:26:36;100255.31;;;5.26;100.00
62694;BME280;48759;52.544;13.418;2022-12-07T06:29:04;100248.50;;;5.22;100.00
62694;BME280;48759;52.544;13.418;2022-12-07T06:31:31;100255.06;;;5.36;100.00
62694;BME280;48759;52.544;13.418;2022-12-07T06:34:00;100255.53;;;4.94;100.00
62694;BME280;48759;52.544;13.418;2022-12-07T06:36:26;100263.19;;;5.21;100.00
62694;BME280;48759;52.544;13.418;2022-12-07T06:38:53;100256.59;;;4.85;100.00
62694;BME280;48759;52.544;13.418;2022-12-07T06:41:20;100260.47;;;4.90;100.00
62694;BME280;48759;52.544;13.418;2022-12-07T06:43:47;100254.16;;;4.67;100.00
62694;BME280;48759;52.544;13.418;2022-12-07T06:46:14;100252.97;;;4.70;100.00
62694;BME280;48759;52.544;13.418;2022-12-07T06:48:41;100252.63;;;4.73;100.00
62694;BME280;48759;52.544;13.418;2022-12-07T06:51:10;100253.69;;;4.63;100.00
62694;BME280;48759;52.544;13.418;2022-12-07T06:53:36;100246.47;;;4.09;100.00
62694;BME280;48759;52.544;13.418;2022-12-07T06:56:04;100243.31;;;4.28;100.00
62694;BME280;48759;52.544;13.418;2022-12-07T06:58:30;100256.50;;;4.47;100.00
62694;BME280;48759;52.544;13.418;2022-12-07T07:00:57;100246.19;;;4.66;100.00
62694;BME280;48759;52.544;13.418;2022-12-07T07:03:24;100244.47;;;4.65;100.00
62694;BME280;48759;52.544;13.418;2022-12-07T07:05:50;100245.06;;;4.75;100.00
62694;BME280;48759;52.544;13.418;2022-12-07T07:08:18;100246.41;;;4.56;100.00
62694;BME280;48759;52.544;13.418;2022-12-07T07:10:45;100238.84;;;3.96;100.00
62694;BME280;48759;52.544;13.418;2022-12-07T07:13:12;100241.00;;;4.17;100.00
62694;BME280;48759;52.544;13.418;2022-12-07T07:15:38;100252.22;;;4.14;100.00
62694;BME280;48759;52.544;13.418;2022-12-07T07:18:05;100245.22;;;4.58;100.00
62694;BME280;48759;52.544;13.418;2022-12-07T07:20:32;100243.13;;;4.60;100.00
62694;BME280;48759;52.544;13.418;2022-12-07T07:22:58;100248.44;;;4.85;100.00
62694;BME280;48759;52.544;13.418;2022-12-07T07:25:26;100260.97;;;4.94;100.00
62694;BME280;48759;52.544;13.418;2022-12-07T07:27:53;100247.34;;;4.94;100.00
62694;BME280;48759;52.544;13.418;2022-12-07T07:30:20;100254.56;;;5.32;100.00
62694;BME280;48759;52.544;13.418;2022-12-07T07:32:47;100239.91;;;4.88;100.00
62694;BME280;48759;52.544;13.418;2022-12-07T07:35:14;100250.59;;;4.36;100.00
62694;BME280;48759;52.544;13.418;2022-12-07T07:37:44;100236.03;;;4.82;100.00
62694;BME280;48759;52.544;13.418;2022-12-07T07:40:11;100229.97;;;4.10;100.00
62694;BME280;48759;52.544;13.418;2022-12-07T07:42:39;100242.34;;;4.13;100.00
62694;BME280;48759;52.544;13.418;2022-12-07T07:45:06;100247.16;;;4.11;100.00
62694;BME280;48759;52.544;13.418;2022-12-07T07:47:33;100244.81;;;3.92;100.00
62694;BME280;48759;52.544;13.418;2022-12-07T07:50:00;100252.97;;;4.39;100.00
62694;BME280;48759;52.544;13.418;2022-12-07T07:52:26;100246.44;;;4.17;100.00
62694;BME280;48759;52.544;13.418;2022-12-07T07:54:59;100239.50;;;4.06;100.00
62694;BME280;48759;52.544;13.418;2022-12-07T07:57:40;100258.78;;;3.80;100.00
62694;BME280;48759;52.544;13.418;2022-12-07T08:00:12;100247.97;;;3.72;100.00
62694;BME280;48759;52.544;13.418;2022-12-07T08:02:43;100249.09;;;4.33;100.00
62694;BME280;48759;52.544;13.418;2022-12-07T08:05:12;100259.50;;;3.74;100.00
62694;BME280;48759;52.544;13.418;2022-12-07T08:07:40;100253.44;;;3.24;100.00
62694;BME280;48759;52.544;13.418;2022-12-07T08:10:08;100257.19;;;3.47;100.00
62694;BME280;48759;52.544;13.418;2022-12-07T08:12:37;100257.34;;;3.13;100.00
62694;BME280;48759;52.544;13.418;2022-12-07T08:15:26;100266.00;;;3.00;100.00
62694;BME280;48759;52.544;13.418;2022-12-07T08:17:54;100254.78;;;3.03;100.00
62694;BME280;48759;52.544;13.418;2022-12-07T08:20:21;100257.69;;;3.42;100.00
62694;BME280;48759;52.544;13.418;2022-12-07T08:22:49;100259.47;;;3.82;100.00
62694;BME280;48759;52.544;13.418;2022-12-07T08:25:16;100263.94;;;3.27;100.00
62694;BME280;48759;52.544;13.418;2022-12-07T08:27:42;100267.69;;;3.66;100.00
62694;BME280;48759;52.544;13.418;2022-12-07T08:30:09;100271.09;;;3.28;100.00
62694;BME280;48759;52.544;13.418;2022-12-07T08:32:38;100276.88;;;3.57;100.00
62694;BME280;48759;52.544;13.418;2022-12-07T08:35:05;100268.00;;;3.79;100.00
62694;BME280;48759;52.544;13.418;2022-12-07T08:40:08;100268.75;;;3.41;100.00
62694;BME280;48759;52.544;13.418;2022-12-07T08:42:36;100280.03;;;4.40;100.00
62694;BME280;48759;52.544;13.418;2022-12-07T08:45:22;100273.31;;;4.20;100.00
62694;BME280;48759;52.544;13.418;2022-12-07T08:48:07;100273.22;;;4.36;100.00
62694;BME280;48759;52.544;13.418;2022-12-07T08:50:37;100281.66;;;4.57;100.00
62694;BME280;48759;52.544;13.418;2022-12-07T08:53:06;100275.19;;;4.58;100.00
62694;BME280;48759;52.544;13.418;2022-12-07T08:55:33;100283.94;;;3.99;100.00
62694;BME280;48759;52.544;13.418;2022-12-07T08:58:02;100287.69;;;3.90;100.00
62694;BME280;48759;52.544;13.418;2022-12-07T09:00:29;100281.59;;;3.96;100.00
62694;BME280;48759;52.544;13.418;2022-12-07T09:02:56;100283.28;;;4.36;100.00
62694;BME280;48759;52.544;13.418;2022-12-07T09:05:24;100295.47;;;4.17;100.00
62694;BME280;48759;52.544;13.418;2022-12-07T09:07:55;100294.09;;;4.13;100.00
62694;BME280;48759;52.544;13.418;2022-12-07T09:10:23;100291.91;;;4.08;100.00
62694;BME280;48759;52.544;13.418;2022-12-07T09:12:49;100289.78;;;3.88;100.00
62694;BME280;48759;52.544;13.418;2022-12-07T09:15:19;100294.91;;;4.60;100.00
62694;BME280;48759;52.544;13.418;2022-12-07T09:17:46;100296.78;;;4.21;100.00
62694;BME280;48759;52.544;13.418;2022-12-07T09:20:13;100326.81;;;3.97;100.00
62694;BME280;48759;52.544;13.418;2022-12-07T09:22:41;100304.06;;;3.73;100.00
62694;BME280;48759;52.544;13.418;2022-12-07T09:25:08;100309.09;;;4.09;100.00
62694;BME280;48759;52.544;13.418;2022-12-07T09:27:34;100314.63;;;3.76;100.00
62694;BME280;48759;52.544;13.418;2022-12-07T09:30:02;100316.50;;;3.68;100.00
62694;BME280;48759;52.544;13.418;2022-12-07T09:32:29;100309.91;;;4.26;100.00
62694;BME280;48759;52.544;13.418;2022-12-07T09:34:56;100323.31;;;3.56;100.00
62694;BME280;48759;52.544;13.418;2022-12-07T09:37:23;100313.25;;;3.24;100.00
62694;BME280;48759;52.544;13.418;2022-12-07T09:39:51;100315.97;;;3.16;100.00
62694;BME280;48759;52.544;13.418;2022-12-07T09:42:28;100305.56;;;2.95;100.00
62694;BME280;48759;52.544;13.418;2022-12-07T09:44:55;100331.44;;;3.15;100.00
62694;BME280;48759;52.544;13.418;2022-12-07T09:47:23;100330.97;;;3.44;100.00
62694;BME280;48759;52.544;13.418;2022-12-07T09:49:50;100326.16;;;3.30;100.00
62694;BME280;48759;52.544;13.418;2022-12-07T09:52:19;100336.38;;;3.93;100.00
62694;BME280;48759;52.544;13.418;2022-12-07T09:54:48;100332.22;;;2.83;100.00
62694;BME280;48759;52.544;13.418;2022-12-07T09:57:20;100329.72;;;3.22;100.00
62694;BME280;48759;52.544;13.418;2022-12-07T09:59:50;100328.22;;;3.84;100.00
62694;BME280;48759;52.544;13.418;2022-12-07T10:02:34;100330.97;;;3.60;100.00
62694;BME280;48759;52.544;13.418;2022-12-07T10:05:04;100335.00;;;3.80;100.00
62694;BME280;48759;52.544;13.418;2022-12-07T10:07:31;100336.41;;;3.68;100.00
62694;BME280;48759;52.544;13.418;2022-12-07T10:09:57;100334.38;;;3.38;100.00
62694;BME280;48759;52.544;13.418;2022-12-07T10:12:25;100334.38;;;3.62;100.00
62694;BME280;48759;52.544;13.418;2022-12-07T10:14:54;100324.50;;;3.37;100.00
62694;BME280;48759;52.544;13.418;2022-12-07T10:17:36;100329.94;;;3.77;100.00
62694;BME280;48759;52.544;13.418;2022-12-07T10:20:20;100332.66;;;3.61;100.00
62694;BME280;48759;52.544;13.418;2022-12-07T10:23:01;100334.69;;;3.43;100.00
62694;BME280;48759;52.544;13.418;2022-12-07T10:25:30;100328.75;;;3.39;100.00
62694;BME280;48759;52.544;13.418;2022-12-07T10:28:11;100331.66;;;3.38;100.00
62694;BME280;48759;52.544;13.418;2022-12-07T10:30:54;100328.03;;;3.29;100.00
62694;BME280;48759;52.544;13.418;2022-12-07T10:33:35;100326.84;;;3.80;100.00
62694;BME280;48759;52.544;13.418;2022-12-07T10:36:17;100333.28;;;4.04;100.00
62694;BME280;48759;52.544;13.418;2022-12-07T10:38:47;100332.97;;;4.46;100.00
62694;BME280;48759;52.544;13.418;2022-12-07T10:41:15;100326.47;;;4.00;100.00
62694;BME280;48759;52.544;13.418;2022-12-07T10:43:52;100334.66;;;3.92;100.00
62694;BME280;48759;52.544;13.418;2022-12-07T10:52:11;100326.00;;;3.15;100.00
62694;BME280;48759;52.544;13.418;2022-12-07T10:54:47;100325.38;;;2.71;100.00
62694;BME280;48759;52.544;13.418;2022-12-07T10:57:29;100321.41;;;3.07;100.00
62694;BME280;48759;52.544;13.418;2022-12-07T11:00:08;100329.72;;;3.14;100.00
62694;BME280;48759;52.544;13.418;2022-12-07T11:03:00;100324.19;;;3.56;100.00
62694;BME280;48759;52.544;13.418;2022-12-07T11:05:36;100335.06;;;3.32;100.00
62694;BME280;48759;52.544;13.418;2022-12-07T11:08:14;100322.06;;;3.01;100.00
62694;BME280;48759;52.544;13.418;2022-12-07T11:10:48;100319.06;;;3.37;100.00
62694;BME280;48759;52.544;13.418;2022-12-07T11:13:28;100325.16;;;3.79;100.00
62694;BME280;48759;52.544;13.418;2022-12-07T11:16:17;100322.09;;;3.74;100.00
62694;BME280;48759;52.544;13.418;2022-12-07T11:18:57;100318.72;;;3.72;100.00
62694;BME280;48759;52.544;13.418;2022-12-07T11:21:40;100321.78;;;3.69;100.00
62694;BME280;48759;52.544;13.418;2022-12-07T11:24:15;100311.41;;;3.57;100.00
62694;BME280;48759;52.544;13.418;2022-12-07T11:26:59;100315.78;;;3.90;100.00
62694;BME280;48759;52.544;13.418;2022-12-07T11:29:44;100324.44;;;4.02;100.00
62694;BME280;48759;52.544;13.418;2022-12-07T11:32:19;100308.13;;;3.85;100.00
62694;BME280;48759;52.544;13.418;2022-12-07T11:34:57;100295.88;;;3.81;100.00
62694;BME280;48759;52.544;13.418;2022-12-07T11:37:31;100299.28;;;3.83;100.00
62694;BME280;48759;52.544;13.418;2022-12-07T11:40:01;100299.25;;;4.00;100.00
62694;BME280;48759;52.544;13.418;2022-12-07T11:42:32;100303.34;;;4.04;100.00
62694;BME280;48759;52.544;13.418;2022-12-07T11:45:04;100306.53;;;4.07;100.00
62694;BME280;48759;52.544;13.418;2022-12-07T11:47:43;100296.56;;;3.75;100.00
62694;BME280;48759;52.544;13.418;2022-12-07T11:50:23;100298.47;;;4.61;100.00
62694;BME280;48759;52.544;13.418;2022-12-07T11:52:54;100293.81;;;4.00;100.00
62694;BME280;48759;52.544;13.418;2022-12-07T11:55:27;100300.63;;;4.04;100.00
62694;BME280;48759;52.544;13.418;2022-12-07T11:58:03;100288.03;;;4.42;100.00
62694;BME280;48759;52.544;13.418;2022-12-07T12:00:30;100298.34;;;4.54;100.00
62694;BME280;48759;52.544;13.418;2022-12-07T12:03:02;100295.81;;;4.53;100.00
62694;BME280;48759;52.544;13.418;2022-12-07T12:05:31;100294.44;;;4.88;100.00
62694;BME280;48759;52.544;13.418;2022-12-07T12:08:05;100298.94;;;4.42;100.00
62694;BME280;48759;52.544;13.418;2022-12-07T12:10:48;100279.22;;;4.32;100.00
62694;BME280;48759;52.544;13.418;2022-12-07T12:13:51;100280.53;;;4.44;100.00
62694;BME280;48759;52.544;13.418;2022-12-07T12:16:44;100278.78;;;4.82;100.00
62694;BME280;48759;52.544;13.418;2022-12-07T12:19:25;100276.78;;;4.45;100.00
62694;BME280;48759;52.544;13.418;2022-12-07T12:21:56;100275.16;;;4.67;100.00
62694;BME280;48759;52.544;13.418;2022-12-07T12:24:26;100265.19;;;4.51;100.00
62694;BME280;48759;52.544;13.418;2022-12-07T12:26:59;100270.28;;;4.77;100.00
62694;BME280;48759;52.544;13.418;2022-12-07T12:29:33;100271.19;;;4.38;100.00
62694;BME280;48759;52.544;13.418;2022-12-07T12:32:13;100265.88;;;4.06;100.00
62694;BME280;48759;52.544;13.418;2022-12-07T12:35:00;100283.56;;;4.80;100.00
62694;BME280;48759;52.544;13.418;2022-12-07T12:37:42;100262.41;;;4.20;100.00
62694;BME280;48759;52.544;13.418;2022-12-07T12:43:46;100270.63;;;4.51;100.00
62694;BME280;48759;52.544;13.418;2022-12-07T12:46:52;100264.22;;;3.89;100.00
62694;BME280;48759;52.544;13.418;2022-12-07T12:49:54;100268.31;;;3.84;100.00
62694;BME280;48759;52.544;13.418;2022-12-07T12:53:02;100261.44;;;4.05;100.00
62694;BME280;48759;52.544;13.418;2022-12-07T12:56:11;100269.00;;;3.95;100.00
62694;BME280;48759;52.544;13.418;2022-12-07T12:58:46;100261.72;;;3.71;100.00
62694;BME280;48759;52.544;13.418;2022-12-07T13:01:43;100256.69;;;4.07;100.00
62694;BME280;48759;52.544;13.418;2022-12-07T13:04:52;100257.97;;;3.80;100.00
62694;BME280;48759;52.544;13.418;2022-12-07T13:07:57;100259.72;;;4.12;100.00
62694;BME280;48759;52.544;13.418;2022-12-07T13:10:39;100262.13;;;4.07;100.00
62694;BME280;48759;52.544;13.418;2022-12-07T13:13:32;100271.47;;;4.12;100.00